Aeroporto :
LOGIN :

Iscrizione | Disclaimer

   EN    FR    IT 

 










Sommario :    VFR   VFR Marginale   IFR   IFR Intensivo   IFR Molto Intensivo
Visibilità : 
Base nubi : 
>= 8 km
>= 3000ft
5 / 8 km
1000 / 3000 ft
1500m / 5 km
500 / 1000 ft
800 / 1500m
200 / 500 ft
< 800m
< 200 ft
Simboli :   Temporali  Nebbia  Neve Forte  Precipitazioni Forti  Vento > 20 kt
SIGMETs :   Varie  Temporali  Ghiacco  Turbolenza  Onda orograficha  Ceneri Vulcaniche







- Altitudine del aeroporto : 257 ft
- Codice IATA : MAN
- Carte del aeroporto


EGCC - Manchester

ULTIMO METAR :
  • 220750Z 21009KT 9999 SCT022 21/17 Q1018

METARs OBSOLETI :
  • 220720Z AUTO 21011KT 160V240 9999 BKN019 BKN024 21/17 Q1017
  • 220650Z AUTO 21010KT 170V240 9999 BKN019 20/17 Q1017
  • 220620Z AUTO 21011KT 170V250 9999 BKN026 20/17 Q1016
  • 220550Z AUTO 21012KT 180V240 9999 SCT025 20/17 Q1016
  • 220520Z AUTO 21010KT 9999 BKN017 BKN023 19/17 Q1016 TEMPO BKN010
  • 220450Z AUTO 19007KT 9999 BKN013 OVC018 19/17 Q1016 TEMPO SCT013

TAF TAF EGCC
Valido dal 22 a 06 ore il 23 a 12 ore UTC


220457Z 2206/2312 20010KT 9999 SCT025 BKN045
TEMPO 2206/2216 19015G25KT
PROB30
TEMPO 2221/2310 BKN012
BECMG 2300/2303 VRB03KT
BECMG 2309/2312 18010KT
ATIS : +44 161 499 2324
Nessun NOTAM noto per questo aeroporto.
1 SIGMET conosciuto per la FIR London (EGTT) :
 
Forte onda orograficha
EGTT SIGMET 02 VALID 220600/221000 EGRR
EGTT LONDON FIR SEV MTW FCST WI N5500 E00140 - N5224 W00120 - N5221 W00530 - N5500 W00530 - N5500 E00140 FL040/240 MOV N 05KT NC=



MetMap, La meteo Aeronautica in un colpo d'occhio ! - Copyright ORBIFLY Dicembre 2007 - Disclaimer

ORBIFLY MET'MAP TEAM :

Programmazione e sviluppo : Alexandra Zaïnal
Concezione e sviluppo : Baudouin d'Aumeries
Co-Programmazione e sviluppo : Marc-Olivier Méhu
Supporto tecnico e logistico : Manuel Goepfert
Aiuto per la traduzione : Arnaldo La Scala

Contatto : metmap@orbifly.com




FONTI E CREDITI :

   NOAA